Logan - 24 Hour Table
Date & TimeSolar
Radiation
(W/m²)
Wind
Speed
(mph)
Wind
Direction
(degrees)
Air
Temperature
(°F)
Relative
Humidity
(%)
Precipitation
(inches)
Barometric
Pressure
(inHg)
2017/10/20 09:00 159 11.4 197 59.0 30 0.00 29.61
2017/10/20 08:00 79 3.1 54 45.2 59 0.00 29.59
2017/10/20 07:00 2 4.0 32 36.3 69 0.00 29.60
2017/10/20 06:00 0 2.1 22 35.3 81 0.00 29.61
2017/10/20 05:00 0 2.6 210 35.3 78 0.00 29.63
2017/10/20 04:00 0 3.7 84 36.8 81 0.00 29.67
2017/10/20 03:00 0 2.5 350 34.2 78 0.00 29.68
2017/10/20 02:00 0 2.4 273 36.7 75 0.00 29.70
2017/10/20 01:00 0 1.3 215 37.7 76 0.00 29.72
2017/10/20 00:00 0 3.8 347 41.0 65 0.00 29.74
2017/10/19 23:00 0 4.3 45 47.9 39 0.00 29.76
2017/10/19 22:00 0 2.9 22 45.9 51 0.00 29.78
2017/10/19 21:00 0 3.1 317 48.8 56 0.00 29.80
2017/10/19 20:00 0 2.7 131 53.1 33 0.00 29.81
2017/10/19 19:00 0 2.9 84 58.0 31 0.00 29.83
2017/10/19 18:00 29 2.6 84 64.9 27 0.00 29.84
2017/10/19 17:00 146 1.5 15 69.5 15 0.00 29.85
2017/10/19 16:00 333 2.4 282 72.2 15 0.00 29.87
2017/10/19 15:00 475 2.0 251 70.6 14 0.00 29.88
2017/10/19 14:00 580 2.6 357 66.8 16 0.00 29.91
2017/10/19 13:00 626 3.5 352 62.3 21 0.00 29.93
2017/10/19 12:00 609 2.2 314 57.6 26 0.00 29.97
2017/10/19 11:00 518 1.9 334 51.7 32 0.00 30.00
2017/10/19 10:00 331 3.2 343 45.2 40 0.00 30.01